createdAt,value
2023-04-30T00:00:18.842Z,1015.19
2023-04-30T00:01:19.086Z,1015.18
2023-04-30T00:02:18.875Z,1015.16
2023-04-30T00:03:19.009Z,1015.17
2023-04-30T00:04:18.854Z,1015.16
2023-04-30T00:05:18.800Z,1015.16
2023-04-30T00:06:18.831Z,1015.19
2023-04-30T00:07:18.762Z,1015.15
2023-04-30T00:08:18.793Z,1015.18
2023-04-30T00:09:18.742Z,1015.22
2023-04-30T00:10:18.721Z,1015.20
2023-04-30T00:11:18.724Z,1015.20
2023-04-30T00:12:18.739Z,1015.20
2023-04-30T00:13:18.692Z,1015.20
2023-04-30T00:14:18.691Z,1015.20
2023-04-30T00:15:18.673Z,1015.24
2023-04-30T00:16:18.713Z,1015.21
2023-04-30T00:17:18.651Z,1015.21
2023-04-30T00:18:18.662Z,1015.23
2023-04-30T00:19:18.627Z,1015.26
2023-04-30T00:20:18.623Z,1015.27
2023-04-30T00:21:18.623Z,1015.25
2023-04-30T00:22:18.600Z,1015.26
2023-04-30T00:23:18.596Z,1015.28
2023-04-30T00:24:18.587Z,1015.29
2023-04-30T00:25:18.565Z,1015.29
2023-04-30T00:26:18.548Z,1015.27
2023-04-30T00:27:18.539Z,1015.30
2023-04-30T00:28:18.551Z,1015.31
2023-04-30T00:29:18.531Z,1015.31
2023-04-30T00:30:18.512Z,1015.31
2023-04-30T00:31:18.505Z,1015.33
2023-04-30T00:32:18.611Z,1015.34
2023-04-30T00:33:18.474Z,1015.34
2023-04-30T00:34:18.569Z,1015.42
2023-04-30T00:35:18.455Z,1015.30
2023-04-30T00:36:18.452Z,1015.36
2023-04-30T00:37:18.616Z,1015.37
2023-04-30T00:38:18.497Z,1015.38
2023-04-30T00:39:18.460Z,1015.35
2023-04-30T00:40:18.402Z,1015.43
2023-04-30T00:41:18.437Z,1015.39
2023-04-30T00:42:18.386Z,1015.49
2023-04-30T00:43:18.412Z,1015.42
2023-04-30T00:44:18.359Z,1015.45
2023-04-30T00:45:18.347Z,1015.46
2023-04-30T00:46:18.396Z,1015.47
2023-04-30T00:47:18.345Z,1015.48
2023-04-30T00:48:18.316Z,1015.45
2023-04-30T00:49:18.322Z,1015.48
2023-04-30T00:50:18.288Z,1015.53
2023-04-30T00:51:18.290Z,1015.52
2023-04-30T00:52:18.298Z,1015.51
2023-04-30T00:53:18.279Z,1015.51
2023-04-30T00:54:18.248Z,1015.59
2023-04-30T00:55:18.235Z,1015.58
2023-04-30T00:56:18.229Z,1015.60
2023-04-30T00:57:18.240Z,1015.61
2023-04-30T00:58:18.204Z,1015.62
2023-04-30T00:59:18.194Z,1015.63
2023-04-30T01:00:18.194Z,1015.66
2023-04-30T01:01:18.212Z,1015.66
2023-04-30T01:02:18.276Z,1015.69
2023-04-30T01:03:18.226Z,1015.68
2023-04-30T01:04:18.137Z,1015.74
2023-04-30T01:05:18.126Z,1015.74
2023-04-30T01:06:18.204Z,1015.75
2023-04-30T01:07:18.123Z,1015.77
2023-04-30T01:08:18.109Z,1015.72
2023-04-30T01:09:18.100Z,1015.74
2023-04-30T01:10:18.080Z,1015.72
2023-04-30T01:11:18.070Z,1015.79
2023-04-30T01:12:18.087Z,1015.77
2023-04-30T01:13:18.036Z,1015.84
2023-04-30T01:14:18.044Z,1015.84
2023-04-30T01:15:18.019Z,1015.86
2023-04-30T01:16:18.037Z,1015.86
2023-04-30T01:17:18.023Z,1015.89
2023-04-30T01:18:18.113Z,1015.89
2023-04-30T01:19:17.977Z,1015.91
2023-04-30T01:20:17.984Z,1015.90
2023-04-30T01:21:17.950Z,1015.91
2023-04-30T01:22:17.947Z,1015.90
2023-04-30T01:23:17.955Z,1015.93
2023-04-30T01:24:17.921Z,1015.96
2023-04-30T01:25:17.933Z,1015.91
2023-04-30T01:26:17.902Z,1015.87
2023-04-30T01:27:17.901Z,1015.87
2023-04-30T01:28:17.901Z,1015.90
2023-04-30T01:29:17.868Z,1015.92
2023-04-30T01:30:17.858Z,1015.93
2023-04-30T01:31:17.875Z,1015.94
2023-04-30T01:32:17.861Z,1015.92
2023-04-30T01:33:17.838Z,1015.99
2023-04-30T01:34:17.814Z,1016.00
2023-04-30T01:35:17.807Z,1015.96
2023-04-30T01:36:17.792Z,1015.97
2023-04-30T01:37:17.814Z,1015.94
2023-04-30T01:38:17.772Z,1016.05
2023-04-30T01:39:17.796Z,1016.00
2023-04-30T01:40:17.749Z,1015.99
2023-04-30T01:41:18.293Z,1016.03
2023-04-30T01:42:17.750Z,1016.06
2023-04-30T01:43:17.727Z,1016.04
2023-04-30T01:44:17.744Z,1016.01
2023-04-30T01:45:17.714Z,1016.03
2023-04-30T01:46:17.760Z,1016.00
2023-04-30T01:47:17.681Z,1016.01
2023-04-30T01:48:17.671Z,1016.00
2023-04-30T01:49:17.713Z,1016.06
2023-04-30T01:50:17.662Z,1016.05
2023-04-30T01:51:17.639Z,1016.03
2023-04-30T01:52:17.666Z,1016.05
2023-04-30T01:53:17.620Z,1016.07
2023-04-30T01:54:17.618Z,1016.07
2023-04-30T01:55:17.592Z,1016.10
2023-04-30T01:56:17.586Z,1016.12
2023-04-30T01:57:17.600Z,1016.14
2023-04-30T01:58:17.559Z,1016.15
2023-04-30T01:59:17.557Z,1016.20
2023-04-30T02:00:17.540Z,1016.17
2023-04-30T02:01:17.578Z,1016.23
2023-04-30T02:02:17.537Z,1016.19
2023-04-30T02:03:17.561Z,1016.17
2023-04-30T02:04:17.494Z,1016.21
2023-04-30T02:05:17.484Z,1016.24
2023-04-30T02:06:17.510Z,1016.24
2023-04-30T02:07:17.507Z,1016.25
2023-04-30T02:08:17.481Z,1016.25
2023-04-30T02:09:17.449Z,1016.31
2023-04-30T02:10:17.429Z,1016.34
2023-04-30T02:11:17.414Z,1016.35
2023-04-30T02:12:17.422Z,1016.40
2023-04-30T02:13:17.416Z,1016.39
2023-04-30T02:14:17.390Z,1016.39
2023-04-30T02:15:17.370Z,1016.38
2023-04-30T02:16:17.390Z,1016.40
2023-04-30T02:17:17.380Z,1016.40
2023-04-30T02:18:17.398Z,1016.41
2023-04-30T02:19:17.354Z,1016.41
2023-04-30T02:20:17.335Z,1016.39
2023-04-30T02:21:17.309Z,1016.41
2023-04-30T02:22:17.306Z,1016.44
2023-04-30T02:23:17.285Z,1016.42
2023-04-30T02:24:17.274Z,1016.43
2023-04-30T02:25:17.263Z,1016.46
2023-04-30T02:26:17.259Z,1016.47
2023-04-30T02:27:17.271Z,1016.48
2023-04-30T02:28:17.229Z,1016.47
2023-04-30T02:29:17.403Z,1016.45
2023-04-30T02:30:17.230Z,1016.49
2023-04-30T02:31:17.214Z,1016.47
2023-04-30T02:32:17.185Z,1016.47
2023-04-30T02:33:17.172Z,1016.45
2023-04-30T02:34:17.210Z,1016.46
2023-04-30T02:35:17.149Z,1016.46
2023-04-30T02:36:17.141Z,1016.51
2023-04-30T02:37:17.160Z,1016.52
2023-04-30T02:38:17.121Z,1016.54
2023-04-30T02:39:17.138Z,1016.55
2023-04-30T02:40:17.100Z,1016.50
2023-04-30T02:41:17.090Z,1016.55
2023-04-30T02:42:17.107Z,1016.53
2023-04-30T02:43:17.064Z,1016.49
2023-04-30T02:44:17.050Z,1016.51
2023-04-30T02:45:17.052Z,1016.55
2023-04-30T02:46:17.066Z,1016.56
2023-04-30T02:47:17.048Z,1016.53
2023-04-30T02:48:17.007Z,1016.58
2023-04-30T02:49:17.000Z,1016.56
2023-04-30T02:50:16.986Z,1016.61
2023-04-30T02:51:16.978Z,1016.58
2023-04-30T02:52:17.025Z,1016.60
2023-04-30T02:53:16.951Z,1016.59
2023-04-30T02:54:16.976Z,1016.62
2023-04-30T02:55:16.942Z,1016.56
2023-04-30T02:56:16.932Z,1016.53
2023-04-30T02:57:16.934Z,1016.57
2023-04-30T02:58:16.904Z,1016.57
2023-04-30T02:59:16.887Z,1016.57
2023-04-30T03:00:16.876Z,1016.61
2023-04-30T03:01:16.924Z,1016.62
2023-04-30T03:02:16.903Z,1016.65
2023-04-30T03:03:16.945Z,1016.68
2023-04-30T03:04:16.834Z,1016.70
2023-04-30T03:05:16.823Z,1016.66
2023-04-30T03:06:16.835Z,1016.73
2023-04-30T03:07:16.804Z,1016.73
2023-04-30T03:08:16.803Z,1016.74
2023-04-30T03:09:16.781Z,1016.72
2023-04-30T03:10:16.774Z,1016.71
2023-04-30T03:11:16.759Z,1016.77
2023-04-30T03:12:16.747Z,1016.75
2023-04-30T03:13:16.755Z,1016.76
2023-04-30T03:14:16.735Z,1016.76
2023-04-30T03:15:16.722Z,1016.82
2023-04-30T03:16:16.761Z,1016.80
2023-04-30T03:17:24.523Z,1016.84
2023-04-30T03:18:16.735Z,1016.83
2023-04-30T03:19:16.707Z,1016.87
2023-04-30T03:20:16.665Z,1016.88
2023-04-30T03:21:16.654Z,1016.86
2023-04-30T03:22:16.671Z,1016.88
2023-04-30T03:23:16.630Z,1016.96
2023-04-30T03:24:16.631Z,1016.94
2023-04-30T03:25:16.621Z,1016.96
2023-04-30T03:26:16.604Z,1016.94
2023-04-30T03:27:16.591Z,1016.91
2023-04-30T03:28:16.605Z,1016.97
2023-04-30T03:29:16.569Z,1016.95
2023-04-30T03:30:16.567Z,1016.94
2023-04-30T03:31:16.555Z,1016.90
2023-04-30T03:32:16.542Z,1016.93
2023-04-30T03:33:16.585Z,1016.90
2023-04-30T03:34:16.527Z,1016.93
2023-04-30T03:35:16.526Z,1016.94
2023-04-30T03:36:16.506Z,1016.94
2023-04-30T03:37:16.485Z,1016.95
2023-04-30T03:38:16.494Z,1016.97
2023-04-30T03:39:16.461Z,1016.97
2023-04-30T03:40:16.455Z,1016.97
2023-04-30T03:41:16.447Z,1016.98
2023-04-30T03:42:16.438Z,1017.00
2023-04-30T03:43:16.435Z,1016.96
2023-04-30T03:44:16.453Z,1016.97
2023-04-30T03:45:16.399Z,1017.00
2023-04-30T03:46:16.448Z,1016.98
2023-04-30T03:47:16.382Z,1016.99
2023-04-30T03:48:16.471Z,1017.01
2023-04-30T03:49:16.376Z,1017.01
2023-04-30T03:50:16.350Z,1017.06
2023-04-30T03:51:16.346Z,1017.08
2023-04-30T03:52:16.342Z,1017.04
2023-04-30T03:53:16.314Z,1017.09
2023-04-30T03:54:16.306Z,1017.11
2023-04-30T03:55:16.293Z,1017.11
2023-04-30T03:56:16.282Z,1017.11
2023-04-30T03:57:16.303Z,1017.09
2023-04-30T03:58:16.268Z,1017.07
2023-04-30T03:59:16.252Z,1017.05
2023-04-30T04:00:16.255Z,1017.08
2023-04-30T04:01:16.233Z,1017.10
2023-04-30T04:02:16.349Z,1017.07
2023-04-30T04:03:16.276Z,1017.16
2023-04-30T04:04:16.229Z,1017.13
2023-04-30T04:05:16.218Z,1017.13
2023-04-30T04:06:16.248Z,1017.18
2023-04-30T04:07:16.167Z,1017.18
2023-04-30T04:08:16.188Z,1017.21
2023-04-30T04:09:16.169Z,1017.23
2023-04-30T04:10:16.161Z,1017.24
2023-04-30T04:11:16.131Z,1017.25
2023-04-30T04:12:16.118Z,1017.31
2023-04-30T04:13:16.103Z,1017.29
2023-04-30T04:14:16.118Z,1017.32
2023-04-30T04:15:16.081Z,1017.29
2023-04-30T04:16:16.085Z,1017.36
2023-04-30T04:17:16.061Z,1017.38
2023-04-30T04:18:16.050Z,1017.34
2023-04-30T04:19:16.107Z,1017.34
2023-04-30T04:20:16.038Z,1017.34
2023-04-30T04:21:16.037Z,1017.38
2023-04-30T04:22:16.012Z,1017.32
2023-04-30T04:23:16.021Z,1017.35
2023-04-30T04:24:15.985Z,1017.38
2023-04-30T04:25:15.979Z,1017.34
2023-04-30T04:26:15.974Z,1017.39
2023-04-30T04:27:15.958Z,1017.37
2023-04-30T04:28:15.985Z,1017.45
2023-04-30T04:29:15.939Z,1017.39
2023-04-30T04:30:15.921Z,1017.39
2023-04-30T04:31:15.943Z,1017.41
2023-04-30T04:32:15.923Z,1017.40
2023-04-30T04:33:15.928Z,1017.42
2023-04-30T04:34:15.872Z,1017.43
2023-04-30T04:35:15.863Z,1017.42
2023-04-30T04:36:15.857Z,1017.44
2023-04-30T04:37:15.861Z,1017.45
2023-04-30T04:38:15.859Z,1017.44
2023-04-30T04:39:15.827Z,1017.49
2023-04-30T04:40:15.807Z,1017.50
2023-04-30T04:41:15.801Z,1017.50
2023-04-30T04:42:15.790Z,1017.54
2023-04-30T04:43:15.792Z,1017.52
2023-04-30T04:44:15.778Z,1017.56
2023-04-30T04:45:15.774Z,1017.56
2023-04-30T04:46:15.799Z,1017.56
2023-04-30T04:47:15.736Z,1017.59
2023-04-30T04:48:15.743Z,1017.59
2023-04-30T04:49:15.713Z,1017.59
2023-04-30T04:50:15.697Z,1017.60
2023-04-30T04:51:15.700Z,1017.66
2023-04-30T04:52:15.681Z,1017.63
2023-04-30T04:53:15.789Z,1017.69
2023-04-30T04:54:15.653Z,1017.72
2023-04-30T04:55:15.641Z,1017.72
2023-04-30T04:56:15.632Z,1017.79
2023-04-30T04:57:15.635Z,1017.80
2023-04-30T04:58:15.633Z,1017.84
2023-04-30T04:59:15.601Z,1017.80
2023-04-30T05:00:15.591Z,1017.82
2023-04-30T05:01:15.629Z,1017.87
2023-04-30T05:02:15.566Z,1017.78
2023-04-30T05:03:15.683Z,1017.84
2023-04-30T05:04:15.548Z,1017.82
2023-04-30T05:05:15.546Z,1017.86
2023-04-30T05:06:15.626Z,1017.89
2023-04-30T05:07:15.517Z,1017.89
2023-04-30T05:08:15.512Z,1017.87
2023-04-30T05:09:15.516Z,1017.87
2023-04-30T05:10:15.479Z,1017.88
2023-04-30T05:11:15.930Z,1017.90
2023-04-30T05:12:15.458Z,1017.91
2023-04-30T05:13:15.475Z,1017.96
2023-04-30T05:14:15.440Z,1017.95
2023-04-30T05:15:15.429Z,1017.93
2023-04-30T05:16:15.477Z,1018.00
2023-04-30T05:17:15.411Z,1018.00
2023-04-30T05:18:15.417Z,1018.06
2023-04-30T05:19:15.405Z,1018.08
2023-04-30T05:20:15.372Z,1018.08
2023-04-30T05:21:15.366Z,1018.03
2023-04-30T05:22:15.354Z,1018.04
2023-04-30T05:23:15.370Z,1018.11
2023-04-30T05:24:15.327Z,1018.12
2023-04-30T05:25:15.339Z,1018.10
2023-04-30T05:26:15.301Z,1018.12
2023-04-30T05:27:15.303Z,1018.11
2023-04-30T05:28:15.302Z,1018.13
2023-04-30T05:29:15.289Z,1018.14
2023-04-30T05:30:15.262Z,1018.21
2023-04-30T05:31:15.257Z,1018.22
2023-04-30T05:32:15.280Z,1018.21
2023-04-30T05:33:15.291Z,1018.26
2023-04-30T05:34:15.216Z,1018.19
2023-04-30T05:35:15.210Z,1018.21
2023-04-30T05:36:15.200Z,1018.18
2023-04-30T05:37:15.193Z,1018.22
2023-04-30T05:38:15.208Z,1018.25
2023-04-30T05:39:15.169Z,1018.25
2023-04-30T05:40:15.165Z,1018.28
2023-04-30T05:41:15.268Z,1018.29
2023-04-30T05:42:15.130Z,1018.23
2023-04-30T05:43:15.152Z,1018.26
2023-04-30T05:44:15.108Z,1018.29
2023-04-30T05:45:15.098Z,1018.28
2023-04-30T05:46:15.147Z,1018.30
2023-04-30T05:47:15.083Z,1018.26
2023-04-30T05:48:15.112Z,1018.31
2023-04-30T05:49:15.055Z,1018.29
2023-04-30T05:50:15.047Z,1018.34
2023-04-30T05:51:15.043Z,1018.36
2023-04-30T05:52:15.019Z,1018.36
2023-04-30T05:53:15.074Z,1018.37
2023-04-30T05:54:15.004Z,1018.38
2023-04-30T05:55:14.995Z,1018.39
2023-04-30T05:56:15.030Z,1018.39
2023-04-30T05:57:14.993Z,1018.41
2023-04-30T05:58:14.984Z,1018.34
2023-04-30T05:59:14.957Z,1018.38
2023-04-30T06:00:14.936Z,1018.36
2023-04-30T06:01:14.932Z,1018.41
2023-04-30T06:02:14.945Z,1018.42
2023-04-30T06:03:14.981Z,1018.41
2023-04-30T06:04:14.897Z,1018.45
2023-04-30T06:05:16.195Z,1018.45
2023-04-30T06:06:14.892Z,1018.42
2023-04-30T06:07:14.860Z,1018.46
2023-04-30T06:08:14.871Z,1018.49
2023-04-30T06:09:14.848Z,1018.48
2023-04-30T06:10:14.836Z,1018.49
2023-04-30T06:11:14.818Z,1018.53
2023-04-30T06:12:14.805Z,1018.54
2023-04-30T06:13:14.954Z,1018.54
2023-04-30T06:14:14.790Z,1018.50
2023-04-30T06:15:14.789Z,1018.52
2023-04-30T06:16:14.793Z,1018.56
2023-04-30T06:17:14.753Z,1018.58
2023-04-30T06:18:14.759Z,1018.55
2023-04-30T06:19:14.731Z,1018.57
2023-04-30T06:20:14.717Z,1018.57
2023-04-30T06:21:14.729Z,1018.57
2023-04-30T06:22:14.700Z,1018.58
2023-04-30T06:23:14.715Z,1018.60
2023-04-30T06:24:14.682Z,1018.61
2023-04-30T06:25:14.681Z,1018.56
2023-04-30T06:26:14.653Z,1018.57
2023-04-30T06:27:14.653Z,1018.61
2023-04-30T06:28:14.649Z,1018.60
2023-04-30T06:29:14.720Z,1018.65
2023-04-30T06:30:14.609Z,1018.70
2023-04-30T06:31:14.641Z,1018.65
2023-04-30T06:32:14.594Z,1018.68
2023-04-30T06:33:14.594Z,1018.67
2023-04-30T06:34:14.568Z,1018.71
2023-04-30T06:35:14.562Z,1018.59
2023-04-30T06:36:14.548Z,1018.67
2023-04-30T06:37:14.540Z,1018.66
2023-04-30T06:38:14.573Z,1018.71
2023-04-30T06:39:14.518Z,1018.67
2023-04-30T06:40:14.507Z,1018.72
2023-04-30T06:41:14.493Z,1018.74
2023-04-30T06:42:14.483Z,1018.77
2023-04-30T06:43:14.485Z,1018.71
2023-04-30T06:44:14.463Z,1018.75
2023-04-30T06:45:14.474Z,1018.70
2023-04-30T06:46:14.470Z,1018.72
2023-04-30T06:47:14.494Z,1018.70
2023-04-30T06:48:14.408Z,1018.71
2023-04-30T06:49:14.413Z,1018.75
2023-04-30T06:50:14.393Z,1018.69
2023-04-30T06:51:14.387Z,1018.72
2023-04-30T06:52:14.401Z,1018.75
2023-04-30T06:53:14.364Z,1018.69
2023-04-30T06:54:14.367Z,1018.73
2023-04-30T06:55:14.347Z,1018.71
2023-04-30T06:56:14.335Z,1018.69
2023-04-30T06:57:14.351Z,1018.71
2023-04-30T06:58:14.306Z,1018.72
2023-04-30T06:59:14.299Z,1018.69
2023-04-30T07:00:14.293Z,1018.74
2023-04-30T07:01:14.313Z,1018.72
2023-04-30T07:02:14.339Z,1018.65
2023-04-30T07:03:14.403Z,1018.68
2023-04-30T07:04:14.247Z,1018.68
2023-04-30T07:05:14.237Z,1018.67
2023-04-30T07:06:14.270Z,1018.62
2023-04-30T07:07:14.221Z,1018.66
2023-04-30T07:08:14.214Z,1018.68
2023-04-30T07:09:14.191Z,1018.65
2023-04-30T07:10:14.171Z,1018.75
2023-04-30T07:11:14.168Z,1018.70
2023-04-30T07:12:14.156Z,1018.68
2023-04-30T07:13:14.183Z,1018.71
2023-04-30T07:14:14.139Z,1018.71
2023-04-30T07:15:14.124Z,1018.69
2023-04-30T07:16:14.146Z,1018.74
2023-04-30T07:17:14.229Z,1018.67
2023-04-30T07:18:14.113Z,1018.69
2023-04-30T07:19:14.089Z,1018.69
2023-04-30T07:20:14.073Z,1018.68
2023-04-30T07:21:14.061Z,1018.72
2023-04-30T07:22:14.083Z,1018.76
2023-04-30T07:23:14.052Z,1018.74
2023-04-30T07:24:14.024Z,1018.75
2023-04-30T07:25:14.016Z,1018.75
2023-04-30T07:26:14.008Z,1018.78
2023-04-30T07:27:13.997Z,1018.73
2023-04-30T07:28:14.008Z,1018.78
2023-04-30T07:29:13.971Z,1018.78
2023-04-30T07:30:13.967Z,1018.79
2023-04-30T07:31:13.992Z,1018.74
2023-04-30T07:32:13.974Z,1018.79
2023-04-30T07:33:14.025Z,1018.75
2023-04-30T07:34:13.919Z,1018.78
2023-04-30T07:35:13.908Z,1018.76
2023-04-30T07:36:13.901Z,1018.75
2023-04-30T07:37:13.908Z,1018.77
2023-04-30T07:38:13.897Z,1018.66
2023-04-30T07:39:13.870Z,1018.74
2023-04-30T07:40:19.287Z,1018.72
2023-04-30T07:41:14.849Z,1018.79
2023-04-30T07:42:13.836Z,1018.81
2023-04-30T07:43:13.842Z,1018.77
2023-04-30T07:44:13.828Z,1018.74
2023-04-30T07:45:13.812Z,1018.77
2023-04-30T07:46:13.832Z,1018.78
2023-04-30T07:47:13.788Z,1018.77
2023-04-30T07:48:13.794Z,1018.80
2023-04-30T07:49:13.782Z,1018.79
2023-04-30T07:50:13.755Z,1018.75
2023-04-30T07:51:13.744Z,1018.80
2023-04-30T07:52:13.775Z,1018.79
2023-04-30T07:53:13.747Z,1018.84
2023-04-30T07:54:13.752Z,1018.88
2023-04-30T07:55:13.721Z,1018.90
2023-04-30T07:56:13.692Z,1018.82
2023-04-30T07:57:13.698Z,1018.82
2023-04-30T07:58:13.671Z,1018.87
2023-04-30T07:59:13.666Z,1018.84
2023-04-30T08:00:13.667Z,1018.90
2023-04-30T08:01:13.642Z,1018.92
2023-04-30T08:02:13.756Z,1018.87
2023-04-30T08:03:13.818Z,1018.86
2023-04-30T08:04:13.654Z,1018.87
2023-04-30T08:05:13.616Z,1018.90
2023-04-30T08:06:13.612Z,1018.89
2023-04-30T08:07:13.596Z,1018.85
2023-04-30T08:08:13.573Z,1018.89
2023-04-30T08:09:13.575Z,1018.90
2023-04-30T08:10:13.545Z,1018.85
2023-04-30T08:11:13.569Z,1018.91
2023-04-30T08:12:13.569Z,1018.92
2023-04-30T08:13:13.519Z,1018.94
2023-04-30T08:14:13.507Z,1018.92
2023-04-30T08:15:13.502Z,1018.92
2023-04-30T08:16:13.527Z,1018.93
2023-04-30T08:17:13.529Z,1018.95
2023-04-30T08:18:13.503Z,1018.97
2023-04-30T08:19:13.459Z,1018.97
2023-04-30T08:20:13.444Z,1018.93
2023-04-30T08:21:13.453Z,1018.91
2023-04-30T08:22:13.429Z,1018.87
2023-04-30T08:23:13.439Z,1018.93
2023-04-30T08:24:13.448Z,1018.88
2023-04-30T08:25:13.411Z,1018.93
2023-04-30T08:26:13.384Z,1018.95
2023-04-30T08:27:13.376Z,1018.93
2023-04-30T08:28:13.388Z,1018.98
2023-04-30T08:29:13.380Z,1018.91
2023-04-30T08:30:13.342Z,1018.93
2023-04-30T08:31:13.353Z,1019.03
2023-04-30T08:32:13.375Z,1018.94
2023-04-30T08:33:13.379Z,1019.03
2023-04-30T08:34:13.309Z,1019.04
2023-04-30T08:35:13.349Z,1019.07
2023-04-30T08:36:13.281Z,1019.06
2023-04-30T08:37:13.289Z,1019.06
2023-04-30T08:38:13.309Z,1019.03
2023-04-30T08:39:13.305Z,1019.00
2023-04-30T08:40:13.239Z,1019.02
2023-04-30T08:41:13.259Z,1019.02
2023-04-30T08:42:13.232Z,1018.97
2023-04-30T08:43:13.224Z,1019.01
2023-04-30T08:44:13.195Z,1018.97
2023-04-30T08:45:13.185Z,1019.00
2023-04-30T08:46:13.248Z,1019.01
2023-04-30T08:47:13.257Z,1018.98
2023-04-30T08:48:13.184Z,1019.02
2023-04-30T08:49:13.162Z,1019.03
2023-04-30T08:50:13.164Z,1019.06
2023-04-30T08:51:13.125Z,1019.04
2023-04-30T08:52:13.122Z,1019.03
2023-04-30T08:53:13.120Z,1018.98
2023-04-30T08:54:13.094Z,1018.96
2023-04-30T08:55:13.092Z,1019.02
2023-04-30T08:56:13.115Z,1018.96
2023-04-30T08:57:13.076Z,1018.95
2023-04-30T08:58:13.052Z,1018.96
2023-04-30T08:59:13.041Z,1018.97
2023-04-30T09:00:13.064Z,1018.97
2023-04-30T09:01:13.039Z,1018.98
2023-04-30T09:02:13.132Z,1018.96
2023-04-30T09:03:13.076Z,1018.96
2023-04-30T09:04:13.301Z,1019.05
2023-04-30T09:05:12.977Z,1019.00
2023-04-30T09:06:12.997Z,1019.00
2023-04-30T09:07:12.978Z,1019.04
2023-04-30T09:08:12.947Z,1019.03
2023-04-30T09:09:12.955Z,1019.07
2023-04-30T09:10:12.927Z,1019.10
2023-04-30T09:11:12.921Z,1019.11
2023-04-30T09:12:12.931Z,1019.16
2023-04-30T09:13:12.913Z,1019.13
2023-04-30T09:14:12.886Z,1019.13
2023-04-30T09:15:12.878Z,1019.14
2023-04-30T09:16:12.897Z,1019.14
2023-04-30T09:17:20.029Z,1019.15
2023-04-30T09:18:12.917Z,1019.12
2023-04-30T09:19:12.844Z,1019.11
2023-04-30T09:20:12.879Z,1019.12
2023-04-30T09:21:12.817Z,1019.09
2023-04-30T09:22:12.837Z,1019.11
2023-04-30T09:23:12.793Z,1019.11
2023-04-30T09:24:12.790Z,1019.13
2023-04-30T09:25:12.797Z,1019.07
2023-04-30T09:26:12.765Z,1019.08
2023-04-30T09:27:12.840Z,1019.11
2023-04-30T09:28:12.752Z,1019.13
2023-04-30T09:29:12.745Z,1019.11
2023-04-30T09:30:12.725Z,1019.13
2023-04-30T09:31:12.733Z,1019.12
2023-04-30T09:32:12.740Z,1019.08
2023-04-30T09:33:12.744Z,1019.15
2023-04-30T09:34:12.690Z,1019.13
2023-04-30T09:35:12.679Z,1019.14
2023-04-30T09:36:12.675Z,1019.17
2023-04-30T09:37:12.707Z,1019.24
2023-04-30T09:38:12.643Z,1019.21
2023-04-30T09:39:14.889Z,1019.22
2023-04-30T09:40:12.618Z,1019.19
2023-04-30T09:41:12.625Z,1019.18
2023-04-30T09:42:12.632Z,1019.19
2023-04-30T09:43:12.588Z,1019.14
2023-04-30T09:44:12.589Z,1019.17
2023-04-30T09:45:12.576Z,1019.21
2023-04-30T09:46:12.595Z,1019.16
2023-04-30T09:47:12.758Z,1019.17
2023-04-30T09:48:17.264Z,1019.20
2023-04-30T09:49:13.533Z,1019.22
2023-04-30T09:50:12.518Z,1019.22
2023-04-30T09:51:12.608Z,1019.22
2023-04-30T09:52:12.527Z,1019.23
2023-04-30T09:53:12.508Z,1019.20
2023-04-30T09:54:12.485Z,1019.18
2023-04-30T09:55:12.477Z,1019.13
2023-04-30T09:56:12.456Z,1019.17
2023-04-30T09:57:13.224Z,1019.11
2023-04-30T09:58:12.440Z,1019.11
2023-04-30T09:59:12.430Z,1019.11
2023-04-30T10:00:12.429Z,1019.05
2023-04-30T10:01:12.426Z,1019.10
2023-04-30T10:02:12.419Z,1019.09
2023-04-30T10:03:12.492Z,1019.05
2023-04-30T10:04:12.407Z,1019.03
2023-04-30T10:05:12.372Z,1019.06
2023-04-30T10:06:12.389Z,1019.03
2023-04-30T10:07:14.831Z,1019.02
2023-04-30T10:08:12.340Z,1018.99
2023-04-30T10:09:12.335Z,1019.01
2023-04-30T10:10:12.332Z,1018.98
2023-04-30T10:11:12.306Z,1018.95
2023-04-30T10:12:12.330Z,1019.00
2023-04-30T10:13:12.398Z,1019.02
2023-04-30T10:14:12.320Z,1019.02
2023-04-30T10:15:12.301Z,1019.00
2023-04-30T10:16:12.329Z,1018.98
2023-04-30T10:17:12.266Z,1019.02
2023-04-30T10:18:12.302Z,1019.06
2023-04-30T10:19:12.327Z,1019.05
2023-04-30T10:20:12.215Z,1018.99
2023-04-30T10:21:12.284Z,1019.03
2023-04-30T10:22:12.195Z,1019.06
2023-04-30T10:23:12.240Z,1018.98
2023-04-30T10:24:12.257Z,1018.93
2023-04-30T10:25:12.161Z,1018.84
2023-04-30T10:26:12.164Z,1018.87
2023-04-30T10:27:12.162Z,1018.85
2023-04-30T10:28:12.156Z,1018.90
2023-04-30T10:29:12.145Z,1018.91
2023-04-30T10:30:12.151Z,1018.90
2023-04-30T10:31:12.118Z,1018.89
2023-04-30T10:32:12.179Z,1018.91
2023-04-30T10:33:13.592Z,1018.88
2023-04-30T10:34:12.072Z,1018.92
2023-04-30T10:35:12.118Z,1018.90
2023-04-30T10:36:12.076Z,1018.84
2023-04-30T10:37:12.084Z,1018.87
2023-04-30T10:38:12.209Z,1018.83
2023-04-30T10:39:12.032Z,1018.75
2023-04-30T10:40:12.017Z,1018.76
2023-04-30T10:41:11.998Z,1018.76
2023-04-30T10:42:12.015Z,1018.76
2023-04-30T10:43:11.999Z,1018.69
2023-04-30T10:44:11.965Z,1018.70
2023-04-30T10:45:11.974Z,1018.73
2023-04-30T10:46:11.989Z,1018.74
2023-04-30T10:47:11.932Z,1018.73
2023-04-30T10:48:12.041Z,1018.69
2023-04-30T10:49:11.921Z,1018.65
2023-04-30T10:50:11.923Z,1018.69
2023-04-30T10:51:11.910Z,1018.73
2023-04-30T10:52:11.882Z,1018.72
2023-04-30T10:53:11.881Z,1018.63
2023-04-30T10:54:11.970Z,1018.68
2023-04-30T10:55:11.860Z,1018.70
2023-04-30T10:56:11.836Z,1018.73
2023-04-30T10:57:11.823Z,1018.73
2023-04-30T10:58:11.832Z,1018.70
2023-04-30T10:59:11.804Z,1018.62
2023-04-30T11:00:11.830Z,1018.62
2023-04-30T11:01:11.839Z,1018.57
2023-04-30T11:02:11.784Z,1018.67
2023-04-30T11:03:11.830Z,1018.70
2023-04-30T11:04:11.751Z,1018.67
2023-04-30T11:05:11.943Z,1018.67
2023-04-30T11:06:11.766Z,1018.63
2023-04-30T11:07:11.767Z,1018.63
2023-04-30T11:08:11.748Z,1018.66
2023-04-30T11:09:11.695Z,1018.62
2023-04-30T11:10:11.701Z,1018.58
2023-04-30T11:11:11.690Z,1018.60
2023-04-30T11:12:11.686Z,1018.57
2023-04-30T11:13:11.659Z,1018.55
2023-04-30T11:14:11.652Z,1018.54
2023-04-30T11:15:11.644Z,1018.59
2023-04-30T11:16:11.861Z,1018.62
2023-04-30T11:17:11.740Z,1018.59
2023-04-30T11:18:11.675Z,1018.60
2023-04-30T11:19:11.873Z,1018.58
2023-04-30T11:20:11.691Z,1018.60
2023-04-30T11:21:11.571Z,1018.56
2023-04-30T11:22:11.596Z,1018.52
2023-04-30T11:23:11.546Z,1018.52
2023-04-30T11:24:11.569Z,1018.51
2023-04-30T11:25:11.528Z,1018.58
2023-04-30T11:26:11.552Z,1018.58
2023-04-30T11:27:11.515Z,1018.65
2023-04-30T11:28:11.515Z,1018.53
2023-04-30T11:29:11.637Z,1018.52
2023-04-30T11:30:11.548Z,1018.50
2023-04-30T11:31:13.019Z,1018.49
2023-04-30T11:32:11.474Z,1018.51
2023-04-30T11:33:11.458Z,1018.53
2023-04-30T11:34:11.453Z,1018.48
2023-04-30T11:35:11.419Z,1018.48
2023-04-30T11:36:11.408Z,1018.50
2023-04-30T11:37:11.424Z,1018.52
2023-04-30T11:38:11.390Z,1018.47
2023-04-30T11:39:11.372Z,1018.49
2023-04-30T11:40:11.467Z,1018.48
2023-04-30T11:41:11.355Z,1018.50
2023-04-30T11:42:11.377Z,1018.48
2023-04-30T11:43:11.329Z,1018.51
2023-04-30T11:44:11.320Z,1018.47
2023-04-30T11:45:11.310Z,1018.48
2023-04-30T11:46:11.439Z,1018.46
2023-04-30T11:47:11.350Z,1018.45
2023-04-30T11:48:11.300Z,1018.43
2023-04-30T11:49:11.290Z,1018.43
2023-04-30T11:50:11.264Z,1018.45
2023-04-30T11:51:11.242Z,1018.42
2023-04-30T11:52:11.250Z,1018.47
2023-04-30T11:53:11.243Z,1018.44
2023-04-30T11:54:11.215Z,1018.39
2023-04-30T11:55:11.205Z,1018.40
2023-04-30T11:56:11.189Z,1018.39
2023-04-30T11:57:11.207Z,1018.36
2023-04-30T11:58:11.176Z,1018.40
2023-04-30T11:59:11.208Z,1018.40
2023-04-30T12:00:11.157Z,1018.39
2023-04-30T12:01:11.142Z,1018.39
2023-04-30T12:02:13.558Z,1018.36
2023-04-30T12:03:11.236Z,1018.32
2023-04-30T12:04:11.290Z,1018.35
2023-04-30T12:05:11.112Z,1018.33